createdAt,value
2023-04-14T00:02:00.654Z,2.40
2023-04-14T00:04:27.663Z,2.90
2023-04-14T00:06:57.064Z,2.67
2023-04-14T00:09:24.051Z,2.30
2023-04-14T00:11:51.024Z,2.60
2023-04-14T00:14:17.819Z,2.30
2023-04-14T00:16:46.370Z,2.58
2023-04-14T00:19:13.151Z,2.78
2023-04-14T00:21:39.993Z,3.05
2023-04-14T00:24:06.720Z,3.22
2023-04-14T00:26:33.546Z,2.17
2023-04-14T00:29:01.224Z,2.05
2023-04-14T00:31:28.288Z,2.55
2023-04-14T00:33:55.138Z,2.35
2023-04-14T00:36:21.884Z,2.08
2023-04-14T00:38:48.716Z,1.95
2023-04-14T00:41:15.537Z,1.75
2023-04-14T00:43:42.267Z,2.10
2023-04-14T00:46:09.462Z,2.17
2023-04-14T00:48:36.551Z,2.00
2023-04-14T00:51:04.253Z,1.88
2023-04-14T00:53:32.701Z,1.85
2023-04-14T00:55:59.990Z,2.40
2023-04-14T00:58:27.399Z,1.88
2023-04-14T01:00:56.120Z,2.40
2023-04-14T01:03:24.661Z,2.55
2023-04-14T01:05:51.825Z,1.77
2023-04-14T01:08:20.645Z,1.77
2023-04-14T01:11:04.657Z,1.92
2023-04-14T01:14:07.032Z,2.28
2023-04-14T01:16:36.703Z,1.70
2023-04-14T01:19:18.794Z,1.75
2023-04-14T01:21:49.964Z,2.03
2023-04-14T01:24:16.666Z,1.67
2023-04-14T01:26:45.374Z,1.95
2023-04-14T01:29:39.242Z,1.67
2023-04-14T01:32:18.681Z,2.38
2023-04-14T01:34:56.570Z,1.70
2023-04-14T01:37:34.353Z,1.80
2023-04-14T01:40:05.842Z,1.73
2023-04-14T01:42:36.543Z,1.55
2023-04-14T01:45:11.790Z,2.00
2023-04-14T01:47:41.867Z,1.92
2023-04-14T01:50:11.354Z,1.70
2023-04-14T01:52:39.347Z,1.50
2023-04-14T01:55:07.726Z,1.98
2023-04-14T01:57:36.851Z,1.70
2023-04-14T02:00:05.929Z,1.90
2023-04-14T02:02:44.106Z,1.75
2023-04-14T02:05:13.382Z,2.25
2023-04-14T02:07:41.844Z,2.45
2023-04-14T02:10:11.112Z,1.70
2023-04-14T02:12:44.358Z,2.25
2023-04-14T02:15:13.701Z,2.20
2023-04-14T02:17:42.690Z,2.30
2023-04-14T02:20:12.983Z,1.98
2023-04-14T02:22:41.610Z,2.35
2023-04-14T02:25:09.140Z,2.03
2023-04-14T02:28:01.849Z,1.83
2023-04-14T02:30:44.362Z,2.50
2023-04-14T02:33:17.242Z,1.70
2023-04-14T02:36:09.695Z,2.13
2023-04-14T02:38:54.921Z,2.17
2023-04-14T02:41:30.394Z,2.13
2023-04-14T02:44:21.189Z,2.10
2023-04-14T02:47:03.905Z,1.55
2023-04-14T02:49:46.745Z,2.00
2023-04-14T02:52:17.516Z,2.05
2023-04-14T02:54:47.981Z,1.90
2023-04-14T02:57:16.326Z,2.88
2023-04-14T02:59:48.263Z,2.17
2023-04-14T03:02:17.555Z,2.05
2023-04-14T03:04:49.385Z,1.80
2023-04-14T03:07:33.196Z,2.10
2023-04-14T03:10:01.239Z,1.73
2023-04-14T03:12:29.260Z,1.98
2023-04-14T03:14:58.161Z,1.80
2023-04-14T03:17:26.364Z,1.90
2023-04-14T03:19:54.207Z,1.88
2023-04-14T03:22:22.156Z,1.70
2023-04-14T03:24:50.772Z,3.35
2023-04-14T03:27:22.752Z,1.80
2023-04-14T03:29:53.448Z,1.75
2023-04-14T03:32:26.531Z,1.80
2023-04-14T03:34:56.927Z,1.60
2023-04-14T03:37:28.719Z,1.75
2023-04-14T03:40:00.563Z,1.67
2023-04-14T03:42:29.995Z,2.50
2023-04-14T03:45:00.390Z,2.03
2023-04-14T03:47:31.729Z,1.67
2023-04-14T03:50:02.656Z,1.92
2023-04-14T03:52:35.394Z,1.80
2023-04-14T03:55:06.240Z,2.08
2023-04-14T03:57:37.451Z,2.03
2023-04-14T04:00:08.451Z,1.95
2023-04-14T04:02:43.019Z,1.70
2023-04-14T04:05:12.507Z,1.80
2023-04-14T04:07:41.420Z,1.38
2023-04-14T04:10:09.431Z,1.65
2023-04-14T04:12:37.592Z,1.73
2023-04-14T04:15:07.060Z,1.30
2023-04-14T04:17:35.053Z,1.85
2023-04-14T04:20:07.954Z,2.50
2023-04-14T04:22:38.107Z,1.73
2023-04-14T04:25:06.663Z,2.88
2023-04-14T04:27:36.482Z,2.33
2023-04-14T04:30:12.407Z,2.03
2023-04-14T04:32:39.699Z,1.75
2023-04-14T04:35:08.918Z,2.10
2023-04-14T04:37:37.681Z,1.70
2023-04-14T04:40:04.865Z,1.90
2023-04-14T04:42:32.103Z,1.42
2023-04-14T04:44:58.957Z,1.50
2023-04-14T04:47:26.171Z,2.03
2023-04-14T04:49:52.932Z,1.60
2023-04-14T04:52:19.630Z,1.90
2023-04-14T04:54:52.060Z,2.05
2023-04-14T04:57:19.698Z,1.88
2023-04-14T04:59:46.523Z,2.30
2023-04-14T05:02:13.483Z,2.05
2023-04-14T05:04:40.848Z,2.17
2023-04-14T05:07:07.826Z,1.80
2023-04-14T05:09:34.621Z,2.08
2023-04-14T05:12:01.935Z,1.83
2023-04-14T05:14:28.705Z,2.00
2023-04-14T05:16:55.653Z,1.67
2023-04-14T05:19:22.357Z,1.75
2023-04-14T05:21:49.131Z,2.30
2023-04-14T05:24:16.270Z,2.30
2023-04-14T05:29:12.743Z,2.08
2023-04-14T05:31:39.607Z,2.17
2023-04-14T05:34:06.558Z,2.30
2023-04-14T05:36:33.314Z,2.10
2023-04-14T05:39:00.250Z,2.22
2023-04-14T05:41:27.089Z,2.80
2023-04-14T05:43:53.834Z,2.08
2023-04-14T05:46:20.764Z,2.80
2023-04-14T05:48:47.497Z,2.40
2023-04-14T05:51:14.341Z,2.50
2023-04-14T05:53:41.126Z,2.50
2023-04-14T05:56:09.981Z,2.55
2023-04-14T05:58:36.982Z,2.25
2023-04-14T06:01:04.137Z,2.75
2023-04-14T06:03:31.631Z,3.03
2023-04-14T06:06:01.454Z,2.42
2023-04-14T06:08:30.132Z,2.90
2023-04-14T06:10:59.009Z,1.67
2023-04-14T06:13:25.791Z,2.53
2023-04-14T06:15:52.666Z,1.95
2023-04-14T06:18:19.492Z,1.85
2023-04-14T06:20:46.392Z,1.58
2023-04-14T06:23:13.156Z,1.63
2023-04-14T06:25:40.621Z,1.60
2023-04-14T06:28:07.685Z,1.52
2023-04-14T06:30:34.452Z,1.70
2023-04-14T06:33:04.692Z,1.73
2023-04-14T06:35:33.875Z,1.50
2023-04-14T06:38:03.437Z,1.92
2023-04-14T06:40:30.439Z,1.50
2023-04-14T06:42:57.204Z,1.88
2023-04-14T06:45:23.965Z,2.30
2023-04-14T06:47:51.385Z,1.83
2023-04-14T06:50:18.224Z,1.55
2023-04-14T06:52:45.447Z,1.50
2023-04-14T06:55:12.172Z,1.60
2023-04-14T06:57:38.900Z,1.50
2023-04-14T07:00:07.099Z,1.85
2023-04-14T07:02:33.921Z,1.52
2023-04-14T07:05:00.821Z,2.00
2023-04-14T07:07:27.561Z,2.08
2023-04-14T07:09:54.428Z,1.55
2023-04-14T07:12:21.185Z,1.20
2023-04-14T07:14:52.031Z,1.92
2023-04-14T07:17:19.682Z,1.65
2023-04-14T07:19:46.918Z,1.85
2023-04-14T07:22:13.637Z,1.77
2023-04-14T07:24:40.619Z,1.65
2023-04-14T07:27:07.443Z,2.40
2023-04-14T07:29:35.017Z,1.85
2023-04-14T07:32:02.289Z,1.90
2023-04-14T07:34:29.098Z,1.45
2023-04-14T07:36:56.263Z,1.58
2023-04-14T07:39:23.591Z,1.50
2023-04-14T07:41:52.291Z,1.77
2023-04-14T07:44:19.093Z,1.42
2023-04-14T07:46:46.106Z,1.30
2023-04-14T07:49:12.888Z,1.10
2023-04-14T07:51:39.612Z,1.30
2023-04-14T07:54:06.486Z,1.10
2023-04-14T07:56:33.349Z,1.90
2023-04-14T07:59:00.549Z,1.10
2023-04-14T08:01:27.505Z,1.27
2023-04-14T08:03:54.662Z,1.48
2023-04-14T08:06:21.725Z,1.02
2023-04-14T08:08:48.527Z,1.33
2023-04-14T08:11:15.314Z,1.17
2023-04-14T08:13:43.128Z,1.10
2023-04-14T08:16:10.021Z,1.02
2023-04-14T08:18:37.335Z,1.20
2023-04-14T08:21:04.389Z,1.15
2023-04-14T08:23:31.358Z,1.73
2023-04-14T08:25:58.147Z,0.70
2023-04-14T08:28:24.943Z,1.05
2023-04-14T08:30:51.691Z,1.10
2023-04-14T08:33:18.438Z,1.13
2023-04-14T08:35:45.400Z,0.85
2023-04-14T08:38:12.995Z,1.05
2023-04-14T08:40:42.042Z,1.30
2023-04-14T08:43:10.188Z,1.35
2023-04-14T08:45:38.153Z,1.10
2023-04-14T08:48:05.870Z,1.00
2023-04-14T08:50:48.669Z,1.33
2023-04-14T08:53:17.939Z,1.85
2023-04-14T08:55:45.607Z,1.33
2023-04-14T08:58:12.440Z,1.30
2023-04-14T09:00:41.865Z,1.33
2023-04-14T09:03:09.609Z,1.15
2023-04-14T09:05:37.822Z,1.30
2023-04-14T09:08:04.950Z,1.27
2023-04-14T09:10:32.159Z,2.15
2023-04-14T09:12:59.611Z,2.08
2023-04-14T09:15:28.936Z,1.08
2023-04-14T09:17:56.452Z,2.25
2023-04-14T09:20:38.077Z,1.88
2023-04-14T09:23:09.931Z,1.10
2023-04-14T09:25:38.880Z,1.20
2023-04-14T09:28:05.708Z,1.50
2023-04-14T09:30:33.134Z,1.73
2023-04-14T09:33:04.013Z,1.20
2023-04-14T09:35:47.617Z,1.20
2023-04-14T09:38:15.117Z,1.23
2023-04-14T09:40:43.965Z,1.13
2023-04-14T09:43:27.527Z,1.10
2023-04-14T09:45:55.423Z,1.23
2023-04-14T09:48:22.526Z,1.25
2023-04-14T09:51:01.445Z,0.95
2023-04-14T09:53:33.202Z,1.35
2023-04-14T09:56:02.837Z,1.20
2023-04-14T09:58:36.580Z,1.20
2023-04-14T10:01:15.564Z,1.65
2023-04-14T10:03:44.328Z,1.00
2023-04-14T10:06:19.476Z,1.25
2023-04-14T10:08:53.346Z,1.35
2023-04-14T10:11:32.580Z,1.50
2023-04-14T10:14:04.498Z,0.85
2023-04-14T10:16:31.941Z,1.50
2023-04-14T10:18:59.409Z,1.23
2023-04-14T10:21:28.022Z,1.10
2023-04-14T10:23:58.397Z,0.93
2023-04-14T10:26:26.999Z,0.90
2023-04-14T10:28:56.192Z,1.38
2023-04-14T10:31:42.878Z,1.17
2023-04-14T10:34:12.748Z,1.48
2023-04-14T10:36:40.007Z,1.40
2023-04-14T10:39:07.673Z,1.20
2023-04-14T10:41:48.100Z,1.08
2023-04-14T10:44:32.646Z,1.70
2023-04-14T10:47:05.033Z,1.20
2023-04-14T10:49:39.782Z,1.30
2023-04-14T10:52:06.679Z,1.10
2023-04-14T10:54:53.233Z,1.70
2023-04-14T10:57:24.559Z,1.25
2023-04-14T10:59:55.318Z,0.93
2023-04-14T11:02:55.547Z,1.05
2023-04-14T11:05:22.668Z,1.55
2023-04-14T11:07:55.746Z,1.40
2023-04-14T11:10:22.874Z,1.00
2023-04-14T11:13:04.026Z,1.02
2023-04-14T11:15:50.930Z,0.90
2023-04-14T11:18:34.104Z,0.95
2023-04-14T11:21:10.515Z,0.88
2023-04-14T11:23:38.420Z,1.00
2023-04-14T11:26:07.114Z,1.45
2023-04-14T11:28:36.161Z,0.88
2023-04-14T11:31:05.174Z,1.00
2023-04-14T11:33:34.619Z,0.90
2023-04-14T11:36:03.009Z,1.50
2023-04-14T11:38:30.752Z,0.90
2023-04-14T11:40:58.122Z,0.63
2023-04-14T11:43:25.084Z,0.95
2023-04-14T11:45:52.378Z,0.80
2023-04-14T11:48:20.346Z,0.82
2023-04-14T11:50:48.458Z,0.68
2023-04-14T11:53:17.668Z,1.02
2023-04-14T11:55:49.182Z,1.00
2023-04-14T11:58:21.583Z,1.30
2023-04-14T12:00:49.831Z,0.93
2023-04-14T12:03:17.287Z,1.00
2023-04-14T12:05:44.849Z,1.38
2023-04-14T12:08:12.710Z,1.00
2023-04-14T12:10:41.990Z,1.10
2023-04-14T12:13:11.097Z,0.88
2023-04-14T12:15:40.701Z,1.73
2023-04-14T12:18:09.659Z,1.30
2023-04-14T12:20:45.359Z,1.23
2023-04-14T12:23:12.489Z,1.00
2023-04-14T12:25:40.503Z,1.00
2023-04-14T12:28:08.281Z,1.00
2023-04-14T12:30:36.588Z,1.20
2023-04-14T12:33:12.049Z,1.30
2023-04-14T12:35:40.729Z,0.82
2023-04-14T12:38:14.745Z,1.25
2023-04-14T12:40:47.881Z,1.17
2023-04-14T12:43:16.614Z,0.95
2023-04-14T12:45:48.471Z,0.95
2023-04-14T12:48:17.663Z,1.00
2023-04-14T12:50:44.796Z,1.25
2023-04-14T12:53:25.939Z,1.30
2023-04-14T12:56:14.194Z,1.20
2023-04-14T12:58:42.873Z,1.45
2023-04-14T13:01:13.789Z,1.25
2023-04-14T13:03:45.818Z,1.10
2023-04-14T13:06:17.933Z,1.10
2023-04-14T13:08:49.903Z,1.00
2023-04-14T13:11:17.800Z,0.80
2023-04-14T13:13:45.662Z,0.90
2023-04-14T13:16:16.862Z,0.77
2023-04-14T13:18:53.218Z,0.90
2023-04-14T13:21:20.001Z,0.88
2023-04-14T13:23:46.774Z,1.00
2023-04-14T13:26:13.610Z,0.75
2023-04-14T13:28:40.559Z,0.80
2023-04-14T13:31:07.520Z,0.70
2023-04-14T13:33:34.411Z,0.65
2023-04-14T13:36:03.033Z,0.77
2023-04-14T13:38:30.100Z,0.93
2023-04-14T13:40:56.942Z,1.02
2023-04-14T13:43:24.689Z,0.80
2023-04-14T13:45:52.004Z,0.80
2023-04-14T13:48:19.210Z,0.85
2023-04-14T13:50:46.047Z,0.73
2023-04-14T13:53:12.845Z,0.80
2023-04-14T13:55:39.639Z,1.15
2023-04-14T13:58:06.638Z,0.75
2023-04-14T14:00:33.534Z,0.93
2023-04-14T14:03:00.792Z,0.68
2023-04-14T14:05:27.898Z,0.98
2023-04-14T14:07:56.180Z,0.90
2023-04-14T14:10:23.041Z,0.68
2023-04-14T14:12:49.922Z,0.90
2023-04-14T14:15:16.824Z,0.82
2023-04-14T14:17:43.704Z,1.00
2023-04-14T14:20:10.659Z,0.90
2023-04-14T14:22:37.364Z,1.10
2023-04-14T14:25:17.859Z,1.20
2023-04-14T14:27:46.008Z,1.10
2023-04-14T14:30:13.107Z,0.82
2023-04-14T14:32:39.998Z,1.40
2023-04-14T14:35:07.030Z,1.23
2023-04-14T14:37:33.835Z,1.17
2023-04-14T14:40:01.031Z,1.00
2023-04-14T14:42:27.800Z,0.80
2023-04-14T14:44:54.549Z,1.40
2023-04-14T14:47:21.542Z,0.82
2023-04-14T14:49:59.069Z,1.15
2023-04-14T14:52:31.438Z,0.90
2023-04-14T14:54:58.274Z,0.80
2023-04-14T14:57:25.801Z,0.90
2023-04-14T14:59:54.650Z,1.00
2023-04-14T15:02:22.302Z,0.73
2023-04-14T15:04:49.633Z,0.90
2023-04-14T15:07:16.559Z,1.13
2023-04-14T15:09:43.567Z,1.77
2023-04-14T15:12:10.464Z,1.13
2023-04-14T15:14:37.332Z,0.85
2023-04-14T15:17:04.234Z,0.70
2023-04-14T15:19:31.233Z,1.63
2023-04-14T15:22:05.069Z,1.30
2023-04-14T15:24:32.081Z,0.75
2023-04-14T15:26:58.935Z,0.85
2023-04-14T15:29:26.695Z,1.05
2023-04-14T15:31:53.721Z,0.70
2023-04-14T15:34:21.433Z,0.98
2023-04-14T15:36:48.435Z,1.02
2023-04-14T15:39:15.356Z,1.42
2023-04-14T15:41:42.206Z,0.70
2023-04-14T15:44:08.982Z,1.27
2023-04-14T15:46:35.901Z,0.80
2023-04-14T15:49:02.667Z,1.00
2023-04-14T15:51:29.413Z,1.60
2023-04-14T15:53:56.184Z,0.80
2023-04-14T15:56:23.544Z,0.80
2023-04-14T15:58:51.435Z,1.13
2023-04-14T16:01:18.314Z,1.20
2023-04-14T16:03:45.225Z,1.13
2023-04-14T16:06:12.265Z,0.80
2023-04-14T16:08:39.183Z,1.23
2023-04-14T16:11:05.981Z,1.40
2023-04-14T16:13:33.103Z,1.45
2023-04-14T16:16:00.051Z,1.02
2023-04-14T16:18:27.097Z,1.40
2023-04-14T16:20:53.915Z,1.33
2023-04-14T16:23:20.754Z,0.93
2023-04-14T16:25:50.620Z,1.33
2023-04-14T16:28:17.574Z,0.73
2023-04-14T16:30:45.855Z,1.38
2023-04-14T16:33:12.778Z,0.93
2023-04-14T16:35:39.816Z,1.17
2023-04-14T16:38:09.209Z,1.25
2023-04-14T16:40:37.291Z,1.10
2023-04-14T16:43:04.703Z,1.10
2023-04-14T16:45:32.392Z,1.23
2023-04-14T16:47:59.551Z,1.23
2023-04-14T16:50:27.234Z,0.98
2023-04-14T16:52:54.228Z,0.80
2023-04-14T16:55:21.132Z,1.00
2023-04-14T16:57:47.961Z,1.00
2023-04-14T17:00:15.333Z,1.02
2023-04-14T17:02:42.525Z,1.20
2023-04-14T17:05:11.213Z,1.17
2023-04-14T17:07:38.235Z,1.08
2023-04-14T17:10:05.378Z,1.33
2023-04-14T17:12:32.233Z,1.27
2023-04-14T17:15:00.263Z,0.70
2023-04-14T17:17:28.587Z,1.55
2023-04-14T17:19:56.921Z,1.10
2023-04-14T17:22:24.545Z,0.80
2023-04-14T17:24:52.108Z,1.00
2023-04-14T17:27:19.413Z,1.00
2023-04-14T17:29:46.461Z,1.02
2023-04-14T17:32:13.609Z,1.02
2023-04-14T17:34:41.083Z,1.25
2023-04-14T17:37:08.092Z,1.35
2023-04-14T17:39:35.040Z,1.33
2023-04-14T17:42:02.160Z,1.15
2023-04-14T17:44:33.637Z,1.17
2023-04-14T17:47:02.952Z,1.05
2023-04-14T17:49:30.148Z,1.73
2023-04-14T17:51:57.182Z,1.35
2023-04-14T17:54:24.077Z,1.50
2023-04-14T17:56:51.252Z,1.00
2023-04-14T17:59:18.479Z,1.02
2023-04-14T18:01:45.966Z,1.00
2023-04-14T18:04:12.978Z,1.30
2023-04-14T18:06:40.394Z,1.20
2023-04-14T18:09:07.529Z,1.17
2023-04-14T18:11:34.636Z,1.23
2023-04-14T18:14:01.587Z,1.15
2023-04-14T18:16:28.610Z,1.80
2023-04-14T18:18:55.511Z,0.88
2023-04-14T18:21:22.883Z,1.15
2023-04-14T18:28:49.256Z,1.17
2023-04-14T18:31:16.270Z,1.95
2023-04-14T18:33:43.319Z,3.75
2023-04-14T18:36:10.277Z,2.30
2023-04-14T18:38:37.457Z,1.67
2023-04-14T18:41:05.327Z,4.57
2023-04-14T18:43:33.176Z,5.20
2023-04-14T18:46:00.186Z,4.53
2023-04-14T18:48:27.581Z,4.65
2023-04-14T18:51:00.171Z,3.50
2023-04-14T18:53:27.482Z,2.63
2023-04-14T18:55:54.497Z,2.38
2023-04-14T18:58:21.798Z,2.70
2023-04-14T19:00:48.604Z,2.03
2023-04-14T19:03:15.561Z,2.40
2023-04-14T19:05:42.470Z,2.80
2023-04-14T19:08:09.346Z,3.13
2023-04-14T19:10:36.488Z,2.40
2023-04-14T19:13:04.752Z,2.20
2023-04-14T19:15:32.184Z,1.90
2023-04-14T19:17:59.207Z,1.83
2023-04-14T19:20:26.797Z,1.58
2023-04-14T19:22:53.673Z,2.38
2023-04-14T19:25:20.610Z,2.67
2023-04-14T19:27:47.447Z,2.45
2023-04-14T19:30:14.269Z,2.80
2023-04-14T19:32:41.772Z,2.03
2023-04-14T19:35:10.009Z,1.92
2023-04-14T19:37:38.391Z,1.77
2023-04-14T19:40:06.288Z,1.63
2023-04-14T19:42:33.486Z,1.63
2023-04-14T19:45:00.735Z,2.05
2023-04-14T19:47:27.743Z,1.70
2023-04-14T19:49:55.134Z,1.67
2023-04-14T19:52:22.378Z,1.80
2023-04-14T19:54:49.846Z,1.65
2023-04-14T19:57:16.912Z,1.10
2023-04-14T19:59:44.345Z,1.60
2023-04-14T20:02:13.146Z,1.48
2023-04-14T20:04:40.614Z,1.70
2023-04-14T20:07:07.691Z,2.58
2023-04-14T20:09:34.769Z,2.72
2023-04-14T20:12:04.376Z,2.47
2023-04-14T20:14:31.371Z,3.72
2023-04-14T20:16:59.356Z,3.70
2023-04-14T20:19:26.260Z,3.50
2023-04-14T20:21:53.252Z,3.45
2023-04-14T20:24:20.050Z,3.30
2023-04-14T20:26:46.849Z,3.58
2023-04-14T20:29:15.931Z,3.15
2023-04-14T20:31:44.208Z,1.92
2023-04-14T20:34:12.084Z,2.33
2023-04-14T20:36:38.946Z,2.13
2023-04-14T20:39:06.194Z,1.80
2023-04-14T20:41:33.979Z,1.50
2023-04-14T20:44:01.387Z,1.30
2023-04-14T20:46:28.805Z,1.20
2023-04-14T20:48:56.641Z,1.10
2023-04-14T20:51:23.591Z,2.00
2023-04-14T20:53:50.809Z,1.48
2023-04-14T20:56:17.881Z,1.63
2023-04-14T20:58:45.639Z,1.95
2023-04-14T21:01:12.684Z,1.70
2023-04-14T21:03:40.111Z,1.20
2023-04-14T21:06:07.178Z,1.77
2023-04-14T21:08:34.051Z,1.75
2023-04-14T21:11:15.869Z,1.48
2023-04-14T21:15:42.420Z,1.70
2023-04-14T21:16:35.852Z,1.55
2023-04-14T21:19:04.156Z,1.63
2023-04-14T21:21:31.777Z,1.42
2023-04-14T21:23:58.952Z,1.42
2023-04-14T21:26:28.425Z,1.30
2023-04-14T21:28:55.313Z,1.35
2023-04-14T21:31:22.241Z,1.40
2023-04-14T21:33:49.079Z,1.30
2023-04-14T21:36:15.969Z,1.58
2023-04-14T21:38:43.423Z,1.50
2023-04-14T21:41:10.765Z,1.17
2023-04-14T21:43:40.938Z,1.45
2023-04-14T21:46:08.067Z,1.40
2023-04-14T21:48:34.999Z,1.10
2023-04-14T21:51:03.364Z,1.20
2023-04-14T21:53:31.356Z,1.63
2023-04-14T21:56:10.397Z,1.60
2023-04-14T21:58:39.299Z,2.05
2023-04-14T22:01:07.792Z,1.80
2023-04-14T22:03:37.415Z,1.80
2023-04-14T22:06:04.807Z,1.77
2023-04-14T22:08:32.296Z,1.90
2023-04-14T22:10:59.096Z,1.55
2023-04-14T22:13:26.348Z,2.20
2023-04-14T22:15:53.142Z,1.73
2023-04-14T22:18:19.872Z,1.85
2023-04-14T22:20:46.652Z,1.95
2023-04-14T22:23:13.458Z,2.38
2023-04-14T22:25:40.333Z,2.38
2023-04-14T22:28:07.411Z,2.38
2023-04-14T22:30:35.248Z,2.42
2023-04-14T22:33:02.462Z,2.40
2023-04-14T22:35:29.949Z,1.90
2023-04-14T22:37:57.040Z,2.30
2023-04-14T22:40:24.098Z,2.03
2023-04-14T22:42:50.799Z,2.10
2023-04-14T22:45:17.939Z,2.35
2023-04-14T22:47:44.804Z,1.83
2023-04-14T22:50:11.764Z,2.10
2023-04-14T22:52:38.579Z,2.13
2023-04-14T22:55:05.685Z,1.75
2023-04-14T22:57:33.157Z,1.70
2023-04-14T22:59:59.990Z,1.75
2023-04-14T23:02:27.577Z,2.05
2023-04-14T23:04:54.516Z,2.05
2023-04-14T23:07:21.364Z,2.10
2023-04-14T23:09:48.549Z,1.75
2023-04-14T23:12:16.008Z,1.83
2023-04-14T23:14:42.809Z,2.15
2023-04-14T23:17:09.649Z,1.80
2023-04-14T23:19:36.589Z,1.90
2023-04-14T23:22:04.353Z,2.33
2023-04-14T23:24:31.356Z,2.17
2023-04-14T23:26:58.127Z,1.55
2023-04-14T23:29:24.888Z,2.05
2023-04-14T23:31:51.810Z,2.28
2023-04-14T23:34:18.688Z,1.92
2023-04-14T23:36:49.455Z,1.88
2023-04-14T23:39:16.306Z,1.50
2023-04-14T23:41:43.006Z,2.33
2023-04-14T23:44:09.734Z,1.90
2023-04-14T23:46:36.530Z,2.15
2023-04-14T23:49:23.592Z,2.00
2023-04-14T23:51:50.111Z,2.13
2023-04-14T23:54:16.856Z,2.13
2023-04-14T23:56:43.610Z,2.22
2023-04-14T23:59:10.441Z,2.60
